sensor_id;sensor_type;location;lat;lon;timestamp;P1;durP1;ratioP1;P2;durP2;ratioP2
26040;SDS011;13816;53.628;9.950;2023-04-23T00:00:07;7.63;;;6.53;;
26040;SDS011;13816;53.628;9.950;2023-04-23T00:02:39;6.90;;;6.20;;
26040;SDS011;13816;53.628;9.950;2023-04-23T00:05:10;8.63;;;6.50;;
26040;SDS011;13816;53.628;9.950;2023-04-23T00:07:52;6.80;;;6.10;;
26040;SDS011;13816;53.628;9.950;2023-04-23T00:10:20;9.07;;;7.60;;
26040;SDS011;13816;53.628;9.950;2023-04-23T00:12:48;8.90;;;6.70;;
26040;SDS011;13816;53.628;9.950;2023-04-23T00:15:25;9.20;;;6.80;;
26040;SDS011;13816;53.628;9.950;2023-04-23T00:18:11;7.83;;;6.90;;
26040;SDS011;13816;53.628;9.950;2023-04-23T00:20:50;8.67;;;7.83;;
26040;SDS011;13816;53.628;9.950;2023-04-23T00:23:30;8.10;;;7.30;;
26040;SDS011;13816;53.628;9.950;2023-04-23T00:26:13;9.77;;;7.70;;
26040;SDS011;13816;53.628;9.950;2023-04-23T00:28:50;10.67;;;7.70;;
26040;SDS011;13816;53.628;9.950;2023-04-23T00:31:37;10.40;;;9.40;;
26040;SDS011;13816;53.628;9.950;2023-04-23T00:34:07;9.90;;;8.90;;
26040;SDS011;13816;53.628;9.950;2023-04-23T00:37:08;13.60;;;11.13;;
26040;SDS011;13816;53.628;9.950;2023-04-23T00:40:17;11.10;;;10.00;;
26040;SDS011;13816;53.628;9.950;2023-04-23T00:43:29;11.80;;;10.50;;
26040;SDS011;13816;53.628;9.950;2023-04-23T00:46:26;11.20;;;10.10;;
26040;SDS011;13816;53.628;9.950;2023-04-23T00:49:16;12.00;;;10.73;;
26040;SDS011;13816;53.628;9.950;2023-04-23T00:55:49;14.53;;;11.33;;
26040;SDS011;13816;53.628;9.950;2023-04-23T00:58:19;14.43;;;11.87;;
26040;SDS011;13816;53.628;9.950;2023-04-23T01:00:53;14.77;;;12.00;;
26040;SDS011;13816;53.628;9.950;2023-04-23T01:03:28;13.40;;;12.10;;
26040;SDS011;13816;53.628;9.950;2023-04-23T01:05:59;13.73;;;12.53;;
26040;SDS011;13816;53.628;9.950;2023-04-23T01:08:31;17.73;;;13.40;;
26040;SDS011;13816;53.628;9.950;2023-04-23T01:10:59;15.03;;;13.53;;
26040;SDS011;13816;53.628;9.950;2023-04-23T01:13:32;14.90;;;13.40;;
26040;SDS011;13816;53.628;9.950;2023-04-23T01:16:13;18.70;;;14.83;;
26040;SDS011;13816;53.628;9.950;2023-04-23T01:18:46;14.17;;;12.67;;
26040;SDS011;13816;53.628;9.950;2023-04-23T01:21:17;17.53;;;13.63;;
26040;SDS011;13816;53.628;9.950;2023-04-23T01:23:52;16.63;;;14.60;;
26040;SDS011;13816;53.628;9.950;2023-04-23T01:26:22;15.93;;;14.33;;
26040;SDS011;13816;53.628;9.950;2023-04-23T01:28:54;16.50;;;14.80;;
26040;SDS011;13816;53.628;9.950;2023-04-23T01:31:28;16.27;;;14.00;;
26040;SDS011;13816;53.628;9.950;2023-04-23T01:33:56;15.87;;;14.00;;
26040;SDS011;13816;53.628;9.950;2023-04-23T01:36:41;16.67;;;14.87;;
26040;SDS011;13816;53.628;9.950;2023-04-23T01:39:18;16.23;;;13.77;;
26040;SDS011;13816;53.628;9.950;2023-04-23T01:41:49;19.20;;;16.00;;
26040;SDS011;13816;53.628;9.950;2023-04-23T01:44:20;18.17;;;14.97;;
26040;SDS011;13816;53.628;9.950;2023-04-23T01:46:53;21.30;;;14.47;;
26040;SDS011;13816;53.628;9.950;2023-04-23T01:49:22;18.73;;;14.50;;
26040;SDS011;13816;53.628;9.950;2023-04-23T01:51:57;17.40;;;14.67;;
26040;SDS011;13816;53.628;9.950;2023-04-23T01:54:27;19.37;;;17.37;;
26040;SDS011;13816;53.628;9.950;2023-04-23T01:56:55;29.03;;;22.80;;
26040;SDS011;13816;53.628;9.950;2023-04-23T01:59:38;28.53;;;25.30;;
26040;SDS011;13816;53.628;9.950;2023-04-23T02:02:08;30.07;;;26.80;;
26040;SDS011;13816;53.628;9.950;2023-04-23T02:04:52;35.60;;;30.40;;
26040;SDS011;13816;53.628;9.950;2023-04-23T02:07:26;35.60;;;31.30;;
26040;SDS011;13816;53.628;9.950;2023-04-23T02:10:18;38.73;;;32.17;;
26040;SDS011;13816;53.628;9.950;2023-04-23T02:12:50;38.07;;;32.23;;
26040;SDS011;13816;53.628;9.950;2023-04-23T02:15:27;34.20;;;30.07;;
26040;SDS011;13816;53.628;9.950;2023-04-23T02:18:04;37.47;;;32.27;;
26040;SDS011;13816;53.628;9.950;2023-04-23T02:20:39;43.77;;;31.53;;
26040;SDS011;13816;53.628;9.950;2023-04-23T02:23:17;37.30;;;31.37;;
26040;SDS011;13816;53.628;9.950;2023-04-23T02:25:55;38.10;;;31.40;;
26040;SDS011;13816;53.628;9.950;2023-04-23T02:28:26;36.53;;;31.50;;
26040;SDS011;13816;53.628;9.950;2023-04-23T02:31:00;34.70;;;29.90;;
26040;SDS011;13816;53.628;9.950;2023-04-23T02:33:40;39.20;;;31.00;;
26040;SDS011;13816;53.628;9.950;2023-04-23T02:36:16;39.27;;;33.10;;
26040;SDS011;13816;53.628;9.950;2023-04-23T02:38:52;44.10;;;34.90;;
26040;SDS011;13816;53.628;9.950;2023-04-23T02:41:24;40.63;;;31.50;;
26040;SDS011;13816;53.628;9.950;2023-04-23T02:43:57;47.63;;;31.33;;
26040;SDS011;13816;53.628;9.950;2023-04-23T02:46:28;38.90;;;33.40;;
26040;SDS011;13816;53.628;9.950;2023-04-23T02:49:00;38.20;;;29.77;;
26040;SDS011;13816;53.628;9.950;2023-04-23T02:51:34;39.63;;;30.33;;
26040;SDS011;13816;53.628;9.950;2023-04-23T02:54:04;37.73;;;27.73;;
26040;SDS011;13816;53.628;9.950;2023-04-23T02:56:34;40.00;;;28.97;;
26040;SDS011;13816;53.628;9.950;2023-04-23T02:59:05;35.90;;;27.03;;
26040;SDS011;13816;53.628;9.950;2023-04-23T03:01:37;31.23;;;27.10;;
26040;SDS011;13816;53.628;9.950;2023-04-23T03:04:31;32.87;;;26.47;;
26040;SDS011;13816;53.628;9.950;2023-04-23T03:07:11;34.00;;;26.67;;
26040;SDS011;13816;53.628;9.950;2023-04-23T03:09:45;42.70;;;30.17;;
26040;SDS011;13816;53.628;9.950;2023-04-23T03:12:18;35.77;;;26.07;;
26040;SDS011;13816;53.628;9.950;2023-04-23T03:14:50;37.93;;;27.60;;
26040;SDS011;13816;53.628;9.950;2023-04-23T03:17:25;33.83;;;26.20;;
26040;SDS011;13816;53.628;9.950;2023-04-23T03:19:55;31.90;;;26.47;;
26040;SDS011;13816;53.628;9.950;2023-04-23T03:22:25;34.87;;;27.87;;
26040;SDS011;13816;53.628;9.950;2023-04-23T03:24:56;36.20;;;26.20;;
26040;SDS011;13816;53.628;9.950;2023-04-23T03:27:25;33.30;;;25.07;;
26040;SDS011;13816;53.628;9.950;2023-04-23T03:29:53;30.80;;;23.80;;
26040;SDS011;13816;53.628;9.950;2023-04-23T03:32:27;33.77;;;23.17;;
26040;SDS011;13816;53.628;9.950;2023-04-23T03:34:55;32.10;;;23.50;;
26040;SDS011;13816;53.628;9.950;2023-04-23T03:37:23;28.67;;;23.00;;
26040;SDS011;13816;53.628;9.950;2023-04-23T03:39:50;27.73;;;21.70;;
26040;SDS011;13816;53.628;9.950;2023-04-23T03:42:18;28.93;;;20.97;;
26040;SDS011;13816;53.628;9.950;2023-04-23T03:44:47;23.90;;;19.97;;
26040;SDS011;13816;53.628;9.950;2023-04-23T03:47:14;27.63;;;20.50;;
26040;SDS011;13816;53.628;9.950;2023-04-23T03:49:42;26.20;;;19.50;;
26040;SDS011;13816;53.628;9.950;2023-04-23T03:52:10;24.13;;;18.60;;
26040;SDS011;13816;53.628;9.950;2023-04-23T03:54:38;23.10;;;18.00;;
26040;SDS011;13816;53.628;9.950;2023-04-23T03:57:10;23.77;;;17.97;;
26040;SDS011;13816;53.628;9.950;2023-04-23T03:59:50;21.30;;;18.17;;
26040;SDS011;13816;53.628;9.950;2023-04-23T04:02:18;24.10;;;17.00;;
26040;SDS011;13816;53.628;9.950;2023-04-23T04:04:45;21.53;;;16.53;;
26040;SDS011;13816;53.628;9.950;2023-04-23T04:07:16;22.00;;;18.20;;
26040;SDS011;13816;53.628;9.950;2023-04-23T04:09:43;25.53;;;17.83;;
26040;SDS011;13816;53.628;9.950;2023-04-23T04:12:12;24.00;;;16.80;;
26040;SDS011;13816;53.628;9.950;2023-04-23T04:14:41;24.10;;;17.93;;
26040;SDS011;13816;53.628;9.950;2023-04-23T04:17:09;25.70;;;16.43;;
26040;SDS011;13816;53.628;9.950;2023-04-23T04:19:38;20.20;;;16.43;;
26040;SDS011;13816;53.628;9.950;2023-04-23T04:22:05;24.80;;;14.13;;
26040;SDS011;13816;53.628;9.950;2023-04-23T04:24:33;15.90;;;13.43;;
26040;SDS011;13816;53.628;9.950;2023-04-23T04:27:01;16.10;;;14.40;;
26040;SDS011;13816;53.628;9.950;2023-04-23T04:29:28;16.70;;;13.87;;
26040;SDS011;13816;53.628;9.950;2023-04-23T04:31:56;20.93;;;15.63;;
26040;SDS011;13816;53.628;9.950;2023-04-23T04:34:24;22.90;;;14.93;;
26040;SDS011;13816;53.628;9.950;2023-04-23T04:36:51;16.57;;;14.63;;
26040;SDS011;13816;53.628;9.950;2023-04-23T04:39:19;19.30;;;14.53;;
26040;SDS011;13816;53.628;9.950;2023-04-23T04:41:46;18.03;;;13.73;;
26040;SDS011;13816;53.628;9.950;2023-04-23T04:44:14;18.50;;;13.70;;
26040;SDS011;13816;53.628;9.950;2023-04-23T04:46:41;15.50;;;13.23;;
26040;SDS011;13816;53.628;9.950;2023-04-23T04:49:09;16.40;;;12.10;;
26040;SDS011;13816;53.628;9.950;2023-04-23T04:51:37;20.80;;;13.40;;
26040;SDS011;13816;53.628;9.950;2023-04-23T04:54:05;20.90;;;14.10;;
26040;SDS011;13816;53.628;9.950;2023-04-23T04:56:33;20.10;;;12.00;;
26040;SDS011;13816;53.628;9.950;2023-04-23T04:59:01;15.20;;;12.30;;
26040;SDS011;13816;53.628;9.950;2023-04-23T05:01:29;14.17;;;11.43;;
26040;SDS011;13816;53.628;9.950;2023-04-23T05:03:57;14.90;;;12.57;;
26040;SDS011;13816;53.628;9.950;2023-04-23T05:06:25;13.90;;;11.33;;
26040;SDS011;13816;53.628;9.950;2023-04-23T05:08:54;13.40;;;12.00;;
26040;SDS011;13816;53.628;9.950;2023-04-23T05:11:21;11.63;;;10.33;;
26040;SDS011;13816;53.628;9.950;2023-04-23T05:13:49;18.37;;;10.80;;
26040;SDS011;13816;53.628;9.950;2023-04-23T05:16:17;14.70;;;9.60;;
26040;SDS011;13816;53.628;9.950;2023-04-23T05:18:45;13.10;;;10.03;;
26040;SDS011;13816;53.628;9.950;2023-04-23T05:21:12;16.90;;;9.50;;
26040;SDS011;13816;53.628;9.950;2023-04-23T05:23:40;17.67;;;10.13;;
26040;SDS011;13816;53.628;9.950;2023-04-23T05:26:07;13.00;;;10.00;;
26040;SDS011;13816;53.628;9.950;2023-04-23T05:28:35;12.03;;;9.20;;
26040;SDS011;13816;53.628;9.950;2023-04-23T05:31:02;15.10;;;9.07;;
26040;SDS011;13816;53.628;9.950;2023-04-23T05:33:30;12.27;;;9.40;;
26040;SDS011;13816;53.628;9.950;2023-04-23T05:36:04;17.10;;;10.00;;
26040;SDS011;13816;53.628;9.950;2023-04-23T05:38:33;15.27;;;10.17;;
26040;SDS011;13816;53.628;9.950;2023-04-23T05:41:00;12.23;;;9.23;;
26040;SDS011;13816;53.628;9.950;2023-04-23T05:43:28;12.33;;;9.90;;
26040;SDS011;13816;53.628;9.950;2023-04-23T05:45:55;12.47;;;8.90;;
26040;SDS011;13816;53.628;9.950;2023-04-23T05:48:23;12.37;;;9.97;;
26040;SDS011;13816;53.628;9.950;2023-04-23T05:50:50;19.20;;;10.60;;
26040;SDS011;13816;53.628;9.950;2023-04-23T05:53:18;13.60;;;9.20;;
26040;SDS011;13816;53.628;9.950;2023-04-23T05:55:45;14.27;;;10.53;;
26040;SDS011;13816;53.628;9.950;2023-04-23T05:58:13;14.57;;;10.67;;
26040;SDS011;13816;53.628;9.950;2023-04-23T06:00:41;12.50;;;9.63;;
26040;SDS011;13816;53.628;9.950;2023-04-23T06:03:08;13.50;;;10.33;;
26040;SDS011;13816;53.628;9.950;2023-04-23T06:05:36;14.77;;;10.90;;
26040;SDS011;13816;53.628;9.950;2023-04-23T06:08:03;13.80;;;11.00;;
26040;SDS011;13816;53.628;9.950;2023-04-23T06:10:31;13.03;;;10.27;;
26040;SDS011;13816;53.628;9.950;2023-04-23T06:12:58;13.97;;;9.93;;
26040;SDS011;13816;53.628;9.950;2023-04-23T06:15:26;13.80;;;9.73;;
26040;SDS011;13816;53.628;9.950;2023-04-23T06:17:53;12.83;;;10.20;;
26040;SDS011;13816;53.628;9.950;2023-04-23T06:20:21;17.43;;;9.83;;
26040;SDS011;13816;53.628;9.950;2023-04-23T06:23:07;14.70;;;10.33;;
26040;SDS011;13816;53.628;9.950;2023-04-23T06:25:34;14.17;;;9.63;;
26040;SDS011;13816;53.628;9.950;2023-04-23T06:28:01;13.10;;;9.83;;
26040;SDS011;13816;53.628;9.950;2023-04-23T06:30:37;14.47;;;7.40;;
26040;SDS011;13816;53.628;9.950;2023-04-23T06:33:07;14.40;;;9.07;;
26040;SDS011;13816;53.628;9.950;2023-04-23T06:35:34;12.30;;;8.87;;
26040;SDS011;13816;53.628;9.950;2023-04-23T06:38:02;9.83;;;8.37;;
26040;SDS011;13816;53.628;9.950;2023-04-23T06:40:29;12.13;;;8.40;;
26040;SDS011;13816;53.628;9.950;2023-04-23T06:42:57;12.07;;;8.13;;
26040;SDS011;13816;53.628;9.950;2023-04-23T06:45:48;11.90;;;7.87;;
26040;SDS011;13816;53.628;9.950;2023-04-23T06:48:15;8.27;;;7.40;;
26040;SDS011;13816;53.628;9.950;2023-04-23T06:50:43;8.00;;;6.93;;
26040;SDS011;13816;53.628;9.950;2023-04-23T06:53:11;9.07;;;6.97;;
26040;SDS011;13816;53.628;9.950;2023-04-23T06:55:38;11.83;;;6.53;;
26040;SDS011;13816;53.628;9.950;2023-04-23T06:58:06;10.83;;;7.27;;
26040;SDS011;13816;53.628;9.950;2023-04-23T07:00:33;11.50;;;7.00;;
26040;SDS011;13816;53.628;9.950;2023-04-23T07:03:01;8.40;;;6.13;;
26040;SDS011;13816;53.628;9.950;2023-04-23T07:05:29;8.30;;;6.30;;
26040;SDS011;13816;53.628;9.950;2023-04-23T07:07:56;10.90;;;7.23;;
26040;SDS011;13816;53.628;9.950;2023-04-23T07:10:24;12.10;;;7.10;;
26040;SDS011;13816;53.628;9.950;2023-04-23T07:12:51;9.20;;;7.10;;
26040;SDS011;13816;53.628;9.950;2023-04-23T07:15:19;8.83;;;6.63;;
26040;SDS011;13816;53.628;9.950;2023-04-23T07:17:47;8.40;;;6.00;;
26040;SDS011;13816;53.628;9.950;2023-04-23T07:20:14;9.03;;;6.80;;
26040;SDS011;13816;53.628;9.950;2023-04-23T07:22:42;9.80;;;7.20;;
26040;SDS011;13816;53.628;9.950;2023-04-23T07:25:09;9.27;;;6.93;;
26040;SDS011;13816;53.628;9.950;2023-04-23T07:27:36;7.70;;;6.87;;
26040;SDS011;13816;53.628;9.950;2023-04-23T07:30:04;8.00;;;6.93;;
26040;SDS011;13816;53.628;9.950;2023-04-23T07:32:33;10.23;;;6.90;;
26040;SDS011;13816;53.628;9.950;2023-04-23T07:35:01;14.77;;;7.47;;
26040;SDS011;13816;53.628;9.950;2023-04-23T07:37:28;10.40;;;7.70;;
26040;SDS011;13816;53.628;9.950;2023-04-23T07:39:55;10.03;;;7.30;;
26040;SDS011;13816;53.628;9.950;2023-04-23T07:42:23;9.47;;;7.93;;
26040;SDS011;13816;53.628;9.950;2023-04-23T07:44:50;10.87;;;7.20;;
26040;SDS011;13816;53.628;9.950;2023-04-23T07:47:17;10.07;;;7.07;;
26040;SDS011;13816;53.628;9.950;2023-04-23T07:49:45;12.93;;;7.97;;
26040;SDS011;13816;53.628;9.950;2023-04-23T07:52:12;9.47;;;7.93;;
26040;SDS011;13816;53.628;9.950;2023-04-23T07:54:41;12.27;;;8.33;;
26040;SDS011;13816;53.628;9.950;2023-04-23T07:57:08;9.33;;;7.53;;
26040;SDS011;13816;53.628;9.950;2023-04-23T07:59:37;11.27;;;8.70;;
26040;SDS011;13816;53.628;9.950;2023-04-23T08:02:05;13.30;;;8.17;;
26040;SDS011;13816;53.628;9.950;2023-04-23T08:04:32;9.30;;;8.03;;
26040;SDS011;13816;53.628;9.950;2023-04-23T08:07:00;15.13;;;7.97;;
26040;SDS011;13816;53.628;9.950;2023-04-23T08:09:27;8.40;;;7.20;;
26040;SDS011;13816;53.628;9.950;2023-04-23T08:11:55;7.87;;;6.63;;
26040;SDS011;13816;53.628;9.950;2023-04-23T08:14:23;16.53;;;9.30;;
26040;SDS011;13816;53.628;9.950;2023-04-23T08:16:50;10.20;;;7.37;;
26040;SDS011;13816;53.628;9.950;2023-04-23T08:19:18;8.63;;;6.60;;
26040;SDS011;13816;53.628;9.950;2023-04-23T08:21:45;10.90;;;7.80;;
26040;SDS011;13816;53.628;9.950;2023-04-23T08:24:14;9.20;;;6.80;;
26040;SDS011;13816;53.628;9.950;2023-04-23T08:26:41;9.57;;;6.87;;
26040;SDS011;13816;53.628;9.950;2023-04-23T08:29:08;13.90;;;7.60;;
26040;SDS011;13816;53.628;9.950;2023-04-23T08:31:37;9.97;;;6.70;;
26040;SDS011;13816;53.628;9.950;2023-04-23T08:34:04;8.47;;;6.53;;
26040;SDS011;13816;53.628;9.950;2023-04-23T08:36:32;9.00;;;6.50;;
26040;SDS011;13816;53.628;9.950;2023-04-23T08:38:59;10.37;;;7.07;;
26040;SDS011;13816;53.628;9.950;2023-04-23T08:41:40;11.50;;;6.57;;
26040;SDS011;13816;53.628;9.950;2023-04-23T08:46:37;7.40;;;6.67;;
26040;SDS011;13816;53.628;9.950;2023-04-23T08:49:10;8.83;;;6.30;;
26040;SDS011;13816;53.628;9.950;2023-04-23T08:51:41;10.63;;;6.73;;
26040;SDS011;13816;53.628;9.950;2023-04-23T08:54:10;6.93;;;5.83;;
26040;SDS011;13816;53.628;9.950;2023-04-23T08:56:43;7.93;;;6.67;;
26040;SDS011;13816;53.628;9.950;2023-04-23T08:59:10;9.00;;;6.40;;
26040;SDS011;13816;53.628;9.950;2023-04-23T09:01:38;9.77;;;6.67;;
26040;SDS011;13816;53.628;9.950;2023-04-23T09:04:06;8.17;;;6.73;;
26040;SDS011;13816;53.628;9.950;2023-04-23T09:06:41;11.97;;;6.80;;
26040;SDS011;13816;53.628;9.950;2023-04-23T09:09:14;9.23;;;6.67;;
26040;SDS011;13816;53.628;9.950;2023-04-23T09:11:42;13.50;;;7.70;;
26040;SDS011;13816;53.628;9.950;2023-04-23T09:14:10;7.50;;;5.90;;
26040;SDS011;13816;53.628;9.950;2023-04-23T09:16:39;9.00;;;6.40;;
26040;SDS011;13816;53.628;9.950;2023-04-23T09:19:08;8.00;;;6.20;;
26040;SDS011;13816;53.628;9.950;2023-04-23T09:21:37;6.53;;;5.53;;
26040;SDS011;13816;53.628;9.950;2023-04-23T09:24:08;8.23;;;6.40;;
26040;SDS011;13816;53.628;9.950;2023-04-23T09:26:47;11.07;;;6.60;;
26040;SDS011;13816;53.628;9.950;2023-04-23T09:29:19;8.10;;;7.27;;
26040;SDS011;13816;53.628;9.950;2023-04-23T09:31:49;8.93;;;7.10;;
26040;SDS011;13816;53.628;9.950;2023-04-23T09:34:24;9.40;;;7.20;;
26040;SDS011;13816;53.628;9.950;2023-04-23T09:36:52;8.43;;;7.60;;
26040;SDS011;13816;53.628;9.950;2023-04-23T09:39:21;9.53;;;7.63;;
26040;SDS011;13816;53.628;9.950;2023-04-23T09:41:54;8.50;;;7.60;;
26040;SDS011;13816;53.628;9.950;2023-04-23T09:44:30;17.83;;;7.63;;
26040;SDS011;13816;53.628;9.950;2023-04-23T09:47:04;8.37;;;7.40;;
26040;SDS011;13816;53.628;9.950;2023-04-23T09:49:47;10.53;;;8.20;;
26040;SDS011;13816;53.628;9.950;2023-04-23T09:52:15;9.60;;;7.40;;
26040;SDS011;13816;53.628;9.950;2023-04-23T09:54:43;11.97;;;7.50;;
26040;SDS011;13816;53.628;9.950;2023-04-23T09:57:12;9.73;;;7.20;;
26040;SDS011;13816;53.628;9.950;2023-04-23T09:59:39;12.33;;;8.20;;
26040;SDS011;13816;53.628;9.950;2023-04-23T10:02:15;8.77;;;7.93;;
26040;SDS011;13816;53.628;9.950;2023-04-23T10:04:44;8.47;;;7.40;;
26040;SDS011;13816;53.628;9.950;2023-04-23T10:07:17;13.77;;;9.50;;
26040;SDS011;13816;53.628;9.950;2023-04-23T10:09:46;9.87;;;8.80;;
26040;SDS011;13816;53.628;9.950;2023-04-23T10:12:13;10.73;;;8.67;;
26040;SDS011;13816;53.628;9.950;2023-04-23T10:14:45;8.87;;;7.60;;
26040;SDS011;13816;53.628;9.950;2023-04-23T10:17:14;12.50;;;9.23;;
26040;SDS011;13816;53.628;9.950;2023-04-23T10:19:42;17.30;;;8.50;;
26040;SDS011;13816;53.628;9.950;2023-04-23T10:22:10;11.70;;;8.53;;
26040;SDS011;13816;53.628;9.950;2023-04-23T10:24:42;10.60;;;8.80;;
26040;SDS011;13816;53.628;9.950;2023-04-23T10:27:14;9.07;;;7.80;;
26040;SDS011;13816;53.628;9.950;2023-04-23T10:29:59;13.13;;;7.70;;
26040;SDS011;13816;53.628;9.950;2023-04-23T10:32:27;11.60;;;8.40;;
26040;SDS011;13816;53.628;9.950;2023-04-23T10:34:54;9.70;;;8.67;;
26040;SDS011;13816;53.628;9.950;2023-04-23T10:37:23;10.27;;;8.53;;
26040;SDS011;13816;53.628;9.950;2023-04-23T10:39:55;10.97;;;8.67;;
26040;SDS011;13816;53.628;9.950;2023-04-23T10:42:24;10.37;;;9.20;;
26040;SDS011;13816;53.628;9.950;2023-04-23T10:44:54;12.57;;;9.23;;
26040;SDS011;13816;53.628;9.950;2023-04-23T10:47:30;12.50;;;9.20;;
26040;SDS011;13816;53.628;9.950;2023-04-23T10:50:16;10.33;;;9.33;;
26040;SDS011;13816;53.628;9.950;2023-04-23T10:52:44;10.83;;;9.10;;
26040;SDS011;13816;53.628;9.950;2023-04-23T10:55:17;10.13;;;9.10;;
26040;SDS011;13816;53.628;9.950;2023-04-23T10:57:55;11.40;;;9.03;;
26040;SDS011;13816;53.628;9.950;2023-04-23T11:00:27;12.37;;;8.87;;
26040;SDS011;13816;53.628;9.950;2023-04-23T11:02:54;13.30;;;8.70;;
26040;SDS011;13816;53.628;9.950;2023-04-23T11:05:22;12.30;;;11.00;;
26040;SDS011;13816;53.628;9.950;2023-04-23T11:08:01;10.30;;;8.90;;
26040;SDS011;13816;53.628;9.950;2023-04-23T11:10:50;11.57;;;9.27;;
26040;SDS011;13816;53.628;9.950;2023-04-23T11:13:21;12.57;;;11.23;;
26040;SDS011;13816;53.628;9.950;2023-04-23T11:21:55;17.90;;;11.50;;
26040;SDS011;13816;53.628;9.950;2023-04-23T11:24:10;12.70;;;11.33;;
26040;SDS011;13816;53.628;9.950;2023-04-23T11:26:37;16.10;;;11.63;;
26040;SDS011;13816;53.628;9.950;2023-04-23T11:29:08;15.07;;;12.90;;
26040;SDS011;13816;53.628;9.950;2023-04-23T11:31:39;14.00;;;12.20;;
26040;SDS011;13816;53.628;9.950;2023-04-23T11:34:20;13.17;;;11.70;;
26040;SDS011;13816;53.628;9.950;2023-04-23T11:36:50;12.07;;;10.87;;
26040;SDS011;13816;53.628;9.950;2023-04-23T11:39:18;12.60;;;10.90;;
26040;SDS011;13816;53.628;9.950;2023-04-23T11:41:46;14.73;;;11.33;;
26040;SDS011;13816;53.628;9.950;2023-04-23T11:44:14;13.30;;;10.23;;
26040;SDS011;13816;53.628;9.950;2023-04-23T11:46:42;11.80;;;10.07;;
26040;SDS011;13816;53.628;9.950;2023-04-23T11:49:09;11.60;;;10.13;;
26040;SDS011;13816;53.628;9.950;2023-04-23T11:51:42;10.70;;;9.30;;
26040;SDS011;13816;53.628;9.950;2023-04-23T11:54:10;11.53;;;7.53;;
26040;SDS011;13816;53.628;9.950;2023-04-23T11:56:39;10.00;;;7.13;;
26040;SDS011;13816;53.628;9.950;2023-04-23T11:59:07;10.23;;;7.97;;
26040;SDS011;13816;53.628;9.950;2023-04-23T12:01:38;9.47;;;7.70;;
26040;SDS011;13816;53.628;9.950;2023-04-23T12:04:14;8.47;;;7.30;;
26040;SDS011;13816;53.628;9.950;2023-04-23T12:06:43;8.57;;;6.03;;
26040;SDS011;13816;53.628;9.950;2023-04-23T12:09:14;10.20;;;7.97;;
26040;SDS011;13816;53.628;9.950;2023-04-23T12:11:42;11.20;;;8.40;;
26040;SDS011;13816;53.628;9.950;2023-04-23T12:14:12;9.73;;;8.73;;
26040;SDS011;13816;53.628;9.950;2023-04-23T12:16:40;8.43;;;7.60;;
26040;SDS011;13816;53.628;9.950;2023-04-23T12:19:15;9.23;;;6.77;;
26040;SDS011;13816;53.628;9.950;2023-04-23T12:21:51;10.37;;;7.67;;
26040;SDS011;13816;53.628;9.950;2023-04-23T12:24:21;10.13;;;7.60;;
26040;SDS011;13816;53.628;9.950;2023-04-23T12:26:49;7.57;;;6.77;;
26040;SDS011;13816;53.628;9.950;2023-04-23T12:29:20;9.33;;;6.20;;
26040;SDS011;13816;53.628;9.950;2023-04-23T12:31:48;9.20;;;7.10;;
26040;SDS011;13816;53.628;9.950;2023-04-23T12:34:16;12.13;;;7.03;;
26040;SDS011;13816;53.628;9.950;2023-04-23T12:36:44;6.67;;;5.97;;
26040;SDS011;13816;53.628;9.950;2023-04-23T12:41:52;6.47;;;5.83;;
26040;SDS011;13816;53.628;9.950;2023-04-23T12:44:20;6.80;;;5.73;;
26040;SDS011;13816;53.628;9.950;2023-04-23T12:46:57;5.73;;;4.80;;
26040;SDS011;13816;53.628;9.950;2023-04-23T12:49:25;6.27;;;5.10;;
26040;SDS011;13816;53.628;9.950;2023-04-23T12:51:53;12.87;;;5.13;;
26040;SDS011;13816;53.628;9.950;2023-04-23T12:54:23;6.97;;;4.93;;
26040;SDS011;13816;53.628;9.950;2023-04-23T12:56:52;8.10;;;5.10;;
26040;SDS011;13816;53.628;9.950;2023-04-23T12:59:19;6.90;;;5.30;;
26040;SDS011;13816;53.628;9.950;2023-04-23T13:01:47;6.60;;;5.00;;
26040;SDS011;13816;53.628;9.950;2023-04-23T13:04:14;5.47;;;4.43;;
26040;SDS011;13816;53.628;9.950;2023-04-23T13:06:42;8.30;;;4.13;;
26040;SDS011;13816;53.628;9.950;2023-04-23T13:09:09;5.93;;;4.47;;
26040;SDS011;13816;53.628;9.950;2023-04-23T13:11:37;4.57;;;3.53;;
26040;SDS011;13816;53.628;9.950;2023-04-23T13:14:06;4.77;;;4.27;;
26040;SDS011;13816;53.628;9.950;2023-04-23T13:16:33;5.53;;;3.70;;
26040;SDS011;13816;53.628;9.950;2023-04-23T13:19:01;4.10;;;3.40;;
26040;SDS011;13816;53.628;9.950;2023-04-23T13:21:29;6.30;;;4.80;;
26040;SDS011;13816;53.628;9.950;2023-04-23T13:23:56;4.93;;;4.43;;
26040;SDS011;13816;53.628;9.950;2023-04-23T13:26:24;4.50;;;3.80;;
26040;SDS011;13816;53.628;9.950;2023-04-23T13:28:51;6.77;;;4.40;;
26040;SDS011;13816;53.628;9.950;2023-04-23T13:31:21;7.53;;;4.10;;
26040;SDS011;13816;53.628;9.950;2023-04-23T13:33:49;7.73;;;3.97;;
26040;SDS011;13816;53.628;9.950;2023-04-23T13:36:17;3.70;;;3.40;;
26040;SDS011;13816;53.628;9.950;2023-04-23T13:38:45;4.20;;;3.47;;
26040;SDS011;13816;53.628;9.950;2023-04-23T13:41:12;5.20;;;3.93;;
26040;SDS011;13816;53.628;9.950;2023-04-23T13:43:40;4.50;;;3.70;;
26040;SDS011;13816;53.628;9.950;2023-04-23T13:46:07;6.80;;;4.20;;
26040;SDS011;13816;53.628;9.950;2023-04-23T13:48:35;6.83;;;3.17;;
26040;SDS011;13816;53.628;9.950;2023-04-23T13:51:02;4.60;;;3.17;;
26040;SDS011;13816;53.628;9.950;2023-04-23T13:53:36;6.07;;;3.60;;
26040;SDS011;13816;53.628;9.950;2023-04-23T13:56:03;3.47;;;3.13;;
26040;SDS011;13816;53.628;9.950;2023-04-23T13:58:31;3.77;;;3.20;;
26040;SDS011;13816;53.628;9.950;2023-04-23T14:00:58;5.30;;;3.80;;
26040;SDS011;13816;53.628;9.950;2023-04-23T14:03:26;4.57;;;3.50;;
26040;SDS011;13816;53.628;9.950;2023-04-23T14:05:53;4.13;;;3.40;;
26040;SDS011;13816;53.628;9.950;2023-04-23T14:08:21;5.30;;;3.13;;
26040;SDS011;13816;53.628;9.950;2023-04-23T14:10:51;3.90;;;2.70;;
26040;SDS011;13816;53.628;9.950;2023-04-23T14:13:18;4.47;;;2.70;;
26040;SDS011;13816;53.628;9.950;2023-04-23T14:15:46;12.50;;;3.70;;
26040;SDS011;13816;53.628;9.950;2023-04-23T14:18:14;5.50;;;3.53;;
26040;SDS011;13816;53.628;9.950;2023-04-23T14:20:41;3.60;;;3.30;;
26040;SDS011;13816;53.628;9.950;2023-04-23T14:25:40;5.83;;;3.07;;
26040;SDS011;13816;53.628;9.950;2023-04-23T14:31:04;5.50;;;3.73;;
26040;SDS011;13816;53.628;9.950;2023-04-23T14:33:31;7.53;;;3.30;;
26040;SDS011;13816;53.628;9.950;2023-04-23T14:35:59;5.23;;;4.10;;
26040;SDS011;13816;53.628;9.950;2023-04-23T14:38:26;5.87;;;4.20;;
26040;SDS011;13816;53.628;9.950;2023-04-23T14:40:54;5.57;;;4.20;;
26040;SDS011;13816;53.628;9.950;2023-04-23T14:43:21;8.53;;;5.73;;
26040;SDS011;13816;53.628;9.950;2023-04-23T14:45:49;6.50;;;4.33;;
26040;SDS011;13816;53.628;9.950;2023-04-23T14:48:17;8.30;;;5.53;;
26040;SDS011;13816;53.628;9.950;2023-04-23T14:50:44;7.97;;;5.67;;
26040;SDS011;13816;53.628;9.950;2023-04-23T14:53:12;8.13;;;5.40;;
26040;SDS011;13816;53.628;9.950;2023-04-23T14:55:39;8.80;;;5.77;;
26040;SDS011;13816;53.628;9.950;2023-04-23T14:58:08;8.07;;;4.73;;
26040;SDS011;13816;53.628;9.950;2023-04-23T15:00:36;4.73;;;4.00;;
26040;SDS011;13816;53.628;9.950;2023-04-23T15:03:03;5.50;;;4.63;;
26040;SDS011;13816;53.628;9.950;2023-04-23T15:05:36;4.63;;;3.90;;
26040;SDS011;13816;53.628;9.950;2023-04-23T15:08:05;4.77;;;4.00;;
26040;SDS011;13816;53.628;9.950;2023-04-23T15:10:32;5.17;;;4.23;;
26040;SDS011;13816;53.628;9.950;2023-04-23T15:13:01;6.30;;;4.30;;